createdAt,value
2022-11-16T00:02:07.967Z,96616.80
2022-11-16T00:04:35.166Z,96619.80
2022-11-16T00:07:02.912Z,96616.20
2022-11-16T00:09:32.100Z,96613.60
2022-11-16T00:12:02.950Z,96610.20
2022-11-16T00:14:33.991Z,96612.20
2022-11-16T00:17:02.179Z,96616.20
2022-11-16T00:19:29.355Z,96610.20
2022-11-16T00:21:56.468Z,96603.80
2022-11-16T00:24:24.128Z,96593.20
2022-11-16T00:26:54.192Z,96594.40
2022-11-16T00:29:26.199Z,96592.00
2022-11-16T00:31:54.492Z,96592.40
2022-11-16T00:34:23.077Z,96589.40
2022-11-16T00:36:50.806Z,96578.60
2022-11-16T00:39:18.981Z,96569.60
2022-11-16T00:41:47.185Z,96566.00
2022-11-16T00:44:14.662Z,96562.40
2022-11-16T00:46:41.785Z,96565.20
2022-11-16T00:49:09.756Z,96563.00
2022-11-16T00:51:38.133Z,96561.60
2022-11-16T00:54:08.244Z,96565.80
2022-11-16T00:56:37.779Z,96565.00
2022-11-16T00:59:05.657Z,96561.80
2022-11-16T01:01:33.548Z,96556.60
2022-11-16T01:04:00.702Z,96556.00
2022-11-16T01:06:27.584Z,96549.60
2022-11-16T01:08:54.426Z,96541.60
2022-11-16T01:11:43.180Z,96537.60
2022-11-16T01:14:11.149Z,96537.40
2022-11-16T01:16:38.097Z,96531.40
2022-11-16T01:19:06.057Z,96527.60
2022-11-16T01:21:34.236Z,96525.60
2022-11-16T01:24:01.491Z,96520.20
2022-11-16T01:26:29.253Z,96517.00
2022-11-16T01:28:59.275Z,96510.60
2022-11-16T01:31:28.434Z,96507.20
2022-11-16T01:33:55.409Z,96500.80
2022-11-16T01:36:25.778Z,96501.20
2022-11-16T01:38:53.702Z,96494.80
2022-11-16T01:41:27.508Z,96494.00
2022-11-16T01:44:03.157Z,96492.60
2022-11-16T01:46:37.938Z,96485.20
2022-11-16T01:49:13.124Z,96484.00
2022-11-16T01:51:47.736Z,96480.60
2022-11-16T01:54:15.354Z,96477.00
2022-11-16T01:57:07.438Z,96473.60
2022-11-16T01:59:40.041Z,96475.20
2022-11-16T02:02:12.699Z,96473.00
2022-11-16T02:04:39.577Z,96469.00
2022-11-16T02:07:55.125Z,96467.40
2022-11-16T02:10:43.219Z,96469.00
2022-11-16T02:13:11.645Z,96467.80
2022-11-16T02:16:32.204Z,96467.80
2022-11-16T02:19:24.790Z,96465.40
2022-11-16T02:22:44.473Z,96460.00
2022-11-16T02:25:48.638Z,96452.20
2022-11-16T02:29:15.421Z,96441.20
2022-11-16T02:32:07.366Z,96430.20
2022-11-16T02:34:42.088Z,96426.00
2022-11-16T02:37:15.084Z,96422.60
2022-11-16T02:39:46.695Z,96417.60
2022-11-16T02:42:23.919Z,96415.60
2022-11-16T02:44:55.706Z,96417.00
2022-11-16T02:47:30.517Z,96428.40
2022-11-16T02:50:12.571Z,96423.60
2022-11-16T02:52:39.363Z,96406.00
2022-11-16T02:55:09.648Z,96400.80
2022-11-16T02:57:51.560Z,96391.80
2022-11-16T03:00:27.426Z,96393.40
2022-11-16T03:03:40.962Z,96386.00
2022-11-16T03:06:15.175Z,96385.40
2022-11-16T03:09:08.759Z,96382.20
2022-11-16T03:12:00.211Z,96386.00
2022-11-16T03:14:54.455Z,96383.20
2022-11-16T03:17:27.308Z,96387.60
2022-11-16T03:20:07.111Z,96392.80
2022-11-16T03:22:47.737Z,96395.20
2022-11-16T03:25:19.397Z,96397.60
2022-11-16T03:28:09.566Z,96402.60
2022-11-16T03:30:51.477Z,96397.20
2022-11-16T03:33:27.523Z,96381.20
2022-11-16T03:36:09.521Z,96367.20
2022-11-16T03:38:40.928Z,96360.20
2022-11-16T03:41:10.993Z,96349.00
2022-11-16T03:43:43.050Z,96356.60
2022-11-16T03:46:11.227Z,96358.60
2022-11-16T03:48:40.580Z,96355.80
2022-11-16T03:51:13.654Z,96357.60
2022-11-16T03:53:40.765Z,96359.80
2022-11-16T03:56:08.082Z,96365.20
2022-11-16T03:58:35.141Z,96368.00
2022-11-16T04:01:03.676Z,96365.20
2022-11-16T04:03:30.705Z,96365.60
2022-11-16T04:06:16.798Z,96363.60
2022-11-16T04:09:02.611Z,96365.20
2022-11-16T04:11:48.574Z,96371.00
2022-11-16T04:14:39.739Z,96373.80
2022-11-16T04:17:33.599Z,96371.20
2022-11-16T04:20:19.352Z,96369.60
2022-11-16T04:23:18.970Z,96366.20
2022-11-16T04:25:49.619Z,96359.60
2022-11-16T04:28:22.885Z,96362.00
2022-11-16T04:31:21.963Z,96359.60
2022-11-16T04:34:12.888Z,96344.80
2022-11-16T04:37:02.452Z,96340.00
2022-11-16T04:39:29.761Z,96325.20
2022-11-16T04:42:14.915Z,96324.20
2022-11-16T04:45:01.702Z,96320.60
2022-11-16T04:47:33.462Z,96313.00
2022-11-16T04:50:00.863Z,96305.60
2022-11-16T04:52:27.996Z,96300.40
2022-11-16T04:54:56.133Z,96287.60
2022-11-16T04:57:23.245Z,96279.80
2022-11-16T04:59:50.390Z,96274.40
2022-11-16T05:02:17.682Z,96274.80
2022-11-16T05:04:49.100Z,96285.40
2022-11-16T05:07:16.736Z,96290.40
2022-11-16T05:09:48.174Z,96299.80
2022-11-16T05:12:22.849Z,96301.00
2022-11-16T05:14:52.833Z,96295.80
2022-11-16T05:17:20.547Z,96294.80
2022-11-16T05:20:07.229Z,96295.60
2022-11-16T05:22:37.025Z,96290.00
2022-11-16T05:25:06.566Z,96289.20
2022-11-16T05:27:33.502Z,96289.00
2022-11-16T05:30:00.269Z,96286.60
2022-11-16T05:32:28.430Z,96291.60
2022-11-16T05:34:57.688Z,96299.20
2022-11-16T05:37:26.905Z,96304.80
2022-11-16T05:39:57.160Z,96302.40
2022-11-16T05:42:29.408Z,96290.60
2022-11-16T05:44:57.903Z,96287.40
2022-11-16T05:47:25.357Z,96282.40
2022-11-16T05:49:52.148Z,96276.20
2022-11-16T05:52:19.245Z,96274.00
2022-11-16T05:54:46.192Z,96282.20
2022-11-16T05:57:13.167Z,96280.60
2022-11-16T05:59:39.990Z,96277.60
2022-11-16T06:02:07.024Z,96280.00
2022-11-16T06:04:34.262Z,96282.80
2022-11-16T06:07:01.188Z,96284.80
2022-11-16T06:09:30.805Z,96283.60
2022-11-16T06:12:01.330Z,96287.40
2022-11-16T06:14:28.098Z,96291.80
2022-11-16T06:16:54.914Z,96302.40
2022-11-16T06:19:22.088Z,96303.60
2022-11-16T06:21:49.109Z,96309.00
2022-11-16T06:24:17.883Z,96312.20
2022-11-16T06:26:47.215Z,96309.60
2022-11-16T06:29:14.373Z,96308.20
2022-11-16T06:31:41.419Z,96307.60
2022-11-16T06:34:08.569Z,96310.40
2022-11-16T06:36:35.515Z,96315.20
2022-11-16T06:39:02.965Z,96322.20
2022-11-16T06:41:32.874Z,96325.80
2022-11-16T06:44:00.110Z,96331.80
2022-11-16T06:46:30.650Z,96329.60
2022-11-16T06:48:58.003Z,96326.20
2022-11-16T06:51:26.192Z,96334.40
2022-11-16T06:53:52.883Z,96336.20
2022-11-16T06:56:20.185Z,96341.00
2022-11-16T06:58:53.494Z,96345.80
2022-11-16T07:01:21.097Z,96347.00
2022-11-16T07:03:48.991Z,96343.40
2022-11-16T07:06:16.559Z,96341.20
2022-11-16T07:08:45.147Z,96348.20
2022-11-16T07:11:12.501Z,96348.60
2022-11-16T07:13:39.822Z,96341.20
2022-11-16T07:16:10.637Z,96340.20
2022-11-16T07:18:41.879Z,96340.80
2022-11-16T07:21:15.833Z,96339.20
2022-11-16T07:23:44.405Z,96344.40
2022-11-16T07:26:13.513Z,96347.80
2022-11-16T07:28:51.220Z,96338.80
2022-11-16T07:31:20.437Z,96344.80
2022-11-16T07:33:47.568Z,96351.40
2022-11-16T07:36:37.027Z,96351.00
2022-11-16T07:39:04.087Z,96355.20
2022-11-16T07:41:31.129Z,96356.20
2022-11-16T07:44:11.896Z,96358.00
2022-11-16T07:46:48.679Z,96365.80
2022-11-16T07:49:19.083Z,96370.00
2022-11-16T07:51:53.307Z,96371.40
2022-11-16T07:54:40.324Z,96387.40
2022-11-16T07:57:08.200Z,96389.60
2022-11-16T07:59:35.106Z,96396.40
2022-11-16T08:02:02.931Z,96400.60
2022-11-16T08:04:30.947Z,96404.20
2022-11-16T08:06:58.778Z,96407.20
2022-11-16T08:09:26.467Z,96417.80
2022-11-16T08:11:53.446Z,96426.20
2022-11-16T08:14:20.332Z,96430.00
2022-11-16T08:16:48.690Z,96433.00
2022-11-16T08:19:16.031Z,96435.80
2022-11-16T08:21:43.087Z,96442.20
2022-11-16T08:24:10.140Z,96448.80
2022-11-16T08:26:39.065Z,96450.60
2022-11-16T08:29:09.088Z,96458.60
2022-11-16T08:31:38.892Z,96459.80
2022-11-16T08:34:08.958Z,96463.20
2022-11-16T08:36:36.414Z,96472.40
2022-11-16T08:39:03.853Z,96476.40
2022-11-16T08:41:31.430Z,96470.20
2022-11-16T08:44:01.253Z,96468.40
2022-11-16T08:46:28.763Z,96475.80
2022-11-16T08:49:02.330Z,96483.80
2022-11-16T08:51:29.139Z,96485.40
2022-11-16T08:54:03.809Z,96476.60
2022-11-16T08:56:32.911Z,96496.00
2022-11-16T08:59:00.011Z,96497.00
2022-11-16T09:01:31.527Z,96491.80
2022-11-16T09:04:00.059Z,96486.00
2022-11-16T09:06:28.361Z,96481.80
2022-11-16T09:08:56.456Z,96481.80
2022-11-16T09:11:25.275Z,96480.00
2022-11-16T09:13:54.623Z,96482.00
2022-11-16T09:16:23.325Z,96484.40
2022-11-16T09:18:51.957Z,96491.20
2022-11-16T09:21:25.758Z,96486.20
2022-11-16T09:23:55.052Z,96484.60
2022-11-16T09:26:23.437Z,96484.20
2022-11-16T09:28:55.947Z,96480.20
2022-11-16T09:31:23.804Z,96482.00
2022-11-16T09:33:51.343Z,96473.40
2022-11-16T09:36:18.214Z,96477.40
2022-11-16T09:39:17.731Z,96472.80
2022-11-16T09:41:42.571Z,96467.00
2022-11-16T09:44:27.789Z,96462.80
2022-11-16T09:46:59.554Z,96458.80
2022-11-16T09:49:33.343Z,96464.00
2022-11-16T09:52:06.350Z,96460.80
2022-11-16T09:54:42.042Z,96456.00
2022-11-16T09:57:15.641Z,96451.00
2022-11-16T09:59:51.832Z,96452.20
2022-11-16T10:02:36.993Z,96452.80
2022-11-16T10:05:29.855Z,96455.20
2022-11-16T10:08:40.109Z,96449.60
2022-11-16T10:11:54.598Z,96449.80
2022-11-16T10:14:38.397Z,96448.00
2022-11-16T10:17:27.293Z,96449.60
2022-11-16T10:20:02.604Z,96444.80
2022-11-16T10:23:06.509Z,96442.60
2022-11-16T10:25:45.129Z,96438.40
2022-11-16T10:28:51.876Z,96440.00
2022-11-16T10:31:43.741Z,96435.40
2022-11-16T10:34:20.823Z,96436.20
2022-11-16T10:36:47.728Z,96428.80
2022-11-16T10:39:18.204Z,96426.00
2022-11-16T10:41:51.838Z,96425.00
2022-11-16T10:44:39.357Z,96426.40
2022-11-16T10:48:00.352Z,96430.60
2022-11-16T10:50:32.642Z,96427.00
2022-11-16T10:53:00.905Z,96425.80
2022-11-16T10:55:28.889Z,96423.60
2022-11-16T10:57:58.805Z,96421.40
2022-11-16T11:00:51.915Z,96415.40
2022-11-16T11:03:32.734Z,96416.20
2022-11-16T11:06:00.152Z,96414.00
2022-11-16T11:08:31.798Z,96412.00
2022-11-16T11:11:41.494Z,96412.20
2022-11-16T11:14:15.876Z,96412.60
2022-11-16T11:16:42.771Z,96408.00
2022-11-16T11:19:28.831Z,96410.40
2022-11-16T11:22:01.074Z,96407.80
2022-11-16T11:24:43.832Z,96407.60
2022-11-16T11:27:12.151Z,96401.60
2022-11-16T11:29:43.272Z,96403.60
2022-11-16T11:32:24.108Z,96400.00
2022-11-16T11:34:56.181Z,96401.40
2022-11-16T11:37:37.162Z,96396.40
2022-11-16T11:40:09.790Z,96393.80
2022-11-16T11:42:51.091Z,96386.60
2022-11-16T11:45:21.283Z,96386.60
2022-11-16T11:48:02.155Z,96390.40
2022-11-16T11:50:57.969Z,96385.60
2022-11-16T11:53:36.211Z,96386.20
2022-11-16T11:56:03.592Z,96385.20
2022-11-16T11:58:35.734Z,96382.80
2022-11-16T12:01:39.937Z,96374.00
2022-11-16T12:04:31.578Z,96378.40
2022-11-16T12:07:12.047Z,96372.20
2022-11-16T12:10:00.275Z,96370.60
2022-11-16T12:12:51.909Z,96368.60
2022-11-16T12:15:24.447Z,96366.20
2022-11-16T12:18:29.900Z,96354.20
2022-11-16T12:21:14.575Z,96361.40
2022-11-16T12:24:18.894Z,96362.00
2022-11-16T12:27:29.354Z,96363.20
2022-11-16T12:30:14.937Z,96359.20
2022-11-16T12:32:41.703Z,96362.40
2022-11-16T12:35:40.870Z,96360.60
2022-11-16T12:38:40.536Z,96354.40
2022-11-16T12:41:22.460Z,96352.20
2022-11-16T12:44:01.101Z,96350.60
2022-11-16T12:46:37.159Z,96349.80
2022-11-16T12:49:33.076Z,96344.80
2022-11-16T12:52:36.483Z,96345.20
2022-11-16T12:55:38.398Z,96342.20
2022-11-16T12:58:19.012Z,96339.80
2022-11-16T13:02:03.165Z,96336.60
2022-11-16T13:04:58.481Z,96335.80
2022-11-16T13:07:33.231Z,96331.80
2022-11-16T13:10:20.048Z,96331.20
2022-11-16T13:13:09.031Z,96330.40
2022-11-16T13:15:46.251Z,96324.00
2022-11-16T13:18:18.934Z,96320.80
2022-11-16T13:21:00.111Z,96311.80
2022-11-16T13:23:47.952Z,96308.80
2022-11-16T13:26:52.883Z,96304.00
2022-11-16T13:29:42.878Z,96302.40
2022-11-16T13:32:26.201Z,96304.40
2022-11-16T13:34:54.309Z,96294.20
2022-11-16T13:37:39.755Z,96294.80
2022-11-16T13:40:06.549Z,96296.80
2022-11-16T13:42:57.685Z,96301.40
2022-11-16T13:45:49.522Z,96300.40
2022-11-16T13:48:32.735Z,96302.00
2022-11-16T13:51:09.422Z,96301.80
2022-11-16T13:56:51.983Z,96308.60
2022-11-16T13:59:28.434Z,96305.00
2022-11-16T14:02:00.657Z,96308.40
2022-11-16T14:04:53.991Z,96306.40
2022-11-16T14:07:37.189Z,96307.80
2022-11-16T14:10:06.351Z,96318.00
2022-11-16T14:12:39.165Z,96312.00
2022-11-16T14:15:21.135Z,96313.40
2022-11-16T14:18:07.564Z,96317.60
2022-11-16T14:20:58.028Z,96315.60
2022-11-16T14:23:31.885Z,96322.40
2022-11-16T14:26:34.140Z,96323.20
2022-11-16T14:30:08.946Z,96317.20
2022-11-16T14:32:45.863Z,96326.20
2022-11-16T14:35:34.162Z,96326.00
2022-11-16T14:38:21.215Z,96318.80
2022-11-16T14:40:58.907Z,96334.20
2022-11-16T14:43:45.637Z,96333.60
2022-11-16T14:46:26.319Z,96334.60
2022-11-16T14:48:57.931Z,96336.20
2022-11-16T14:51:36.814Z,96334.60
2022-11-16T14:54:32.976Z,96335.60
2022-11-16T14:57:07.814Z,96338.60
2022-11-16T14:59:34.768Z,96342.00
2022-11-16T15:02:23.274Z,96341.60
2022-11-16T15:04:53.327Z,96344.80
2022-11-16T15:07:24.058Z,96340.20
2022-11-16T15:09:55.954Z,96335.20
2022-11-16T15:12:41.988Z,96336.60
2022-11-16T15:15:27.422Z,96342.80
2022-11-16T15:18:00.095Z,96350.40
2022-11-16T15:20:31.453Z,96348.40
2022-11-16T15:23:01.261Z,96353.00
2022-11-16T15:25:32.130Z,96349.20
2022-11-16T15:28:06.213Z,96340.40
2022-11-16T15:30:38.486Z,96341.00
2022-11-16T15:33:15.321Z,96347.00
2022-11-16T15:35:42.281Z,96347.60
2022-11-16T15:38:21.013Z,96350.60
2022-11-16T15:41:04.424Z,96341.80
2022-11-16T15:44:11.876Z,96343.00
2022-11-16T15:46:36.207Z,96342.00
2022-11-16T15:49:03.463Z,96340.60
2022-11-16T15:51:31.536Z,96339.80
2022-11-16T15:54:25.206Z,96335.20
2022-11-16T15:56:56.413Z,96335.00
2022-11-16T15:59:32.285Z,96331.80
2022-11-16T16:01:59.655Z,96337.60
2022-11-16T16:04:28.953Z,96334.60
2022-11-16T16:07:00.327Z,96342.40
2022-11-16T16:09:33.301Z,96341.20
2022-11-16T16:12:22.333Z,96342.80
2022-11-16T16:14:52.302Z,96337.40
2022-11-16T16:17:28.759Z,96337.80
2022-11-16T16:20:06.563Z,96332.60
2022-11-16T16:22:37.433Z,96331.40
2022-11-16T16:25:25.820Z,96322.80
2022-11-16T16:27:52.885Z,96319.80
2022-11-16T16:30:20.118Z,96327.80
2022-11-16T16:32:51.151Z,96321.40
2022-11-16T16:35:24.269Z,96316.80
2022-11-16T16:37:58.876Z,96319.40
2022-11-16T16:40:26.643Z,96329.00
2022-11-16T16:42:56.401Z,96329.20
2022-11-16T16:45:38.948Z,96333.00
2022-11-16T16:48:06.929Z,96330.20
2022-11-16T16:50:33.673Z,96337.80
2022-11-16T16:53:00.797Z,96338.20
2022-11-16T16:55:28.365Z,96330.80
2022-11-16T16:57:58.278Z,96332.00
2022-11-16T17:00:26.027Z,96332.00
2022-11-16T17:02:52.898Z,96333.80
2022-11-16T17:05:20.298Z,96323.40
2022-11-16T17:07:49.103Z,96330.20
2022-11-16T17:10:18.775Z,96333.80
2022-11-16T17:12:46.010Z,96333.40
2022-11-16T17:15:19.043Z,96335.00
2022-11-16T17:17:46.665Z,96325.60
2022-11-16T17:20:16.851Z,96330.80
2022-11-16T17:22:44.375Z,96333.80
2022-11-16T17:25:11.817Z,96331.60
2022-11-16T17:27:39.136Z,96330.20
2022-11-16T17:30:07.473Z,96331.20
2022-11-16T17:32:34.970Z,96323.60
2022-11-16T17:35:02.224Z,96326.00
2022-11-16T17:37:29.224Z,96327.80
2022-11-16T17:39:57.397Z,96331.40
2022-11-16T17:42:25.486Z,96333.00
2022-11-16T17:44:54.278Z,96311.40
2022-11-16T17:47:21.893Z,96324.40
2022-11-16T17:49:49.035Z,96323.20
2022-11-16T17:52:16.265Z,96318.40
2022-11-16T17:54:43.322Z,96317.00
2022-11-16T17:57:10.974Z,96317.20
2022-11-16T17:59:38.078Z,96311.00
2022-11-16T18:02:05.290Z,96313.20
2022-11-16T18:04:33.080Z,96311.00
2022-11-16T18:07:01.209Z,96313.40
2022-11-16T18:09:28.792Z,96310.80
2022-11-16T18:11:55.818Z,96308.80
2022-11-16T18:14:23.063Z,96309.20
2022-11-16T18:16:50.188Z,96307.80
2022-11-16T18:19:19.423Z,96303.80
2022-11-16T18:21:48.195Z,96307.40
2022-11-16T18:24:15.358Z,96299.40
2022-11-16T18:26:42.704Z,96300.60
2022-11-16T18:29:15.976Z,96295.80
2022-11-16T18:31:43.556Z,96295.00
2022-11-16T18:34:15.008Z,96291.20
2022-11-16T18:36:41.994Z,96289.00
2022-11-16T18:39:08.894Z,96290.00
2022-11-16T18:41:35.785Z,96295.20
2022-11-16T18:44:03.091Z,96296.20
2022-11-16T18:46:32.733Z,96294.20
2022-11-16T18:49:00.846Z,96291.20
2022-11-16T18:51:29.113Z,96285.80
2022-11-16T18:53:56.662Z,96283.60
2022-11-16T18:56:25.124Z,96278.40
2022-11-16T18:58:53.100Z,96281.60
2022-11-16T19:01:24.497Z,96277.40
2022-11-16T19:03:53.624Z,96282.40
2022-11-16T19:06:22.120Z,96279.00
2022-11-16T19:08:56.508Z,96278.60
2022-11-16T19:11:24.586Z,96280.60
2022-11-16T19:13:57.381Z,96276.60
2022-11-16T19:16:25.111Z,96273.80
2022-11-16T19:18:52.585Z,96269.40
2022-11-16T19:21:19.811Z,96269.00
2022-11-16T19:23:51.810Z,96269.40
2022-11-16T19:26:24.419Z,96272.40
2022-11-16T19:28:53.079Z,96267.60
2022-11-16T19:31:23.757Z,96264.00
2022-11-16T19:34:05.238Z,96256.60
2022-11-16T19:36:35.687Z,96255.20
2022-11-16T19:39:03.665Z,96261.60
2022-11-16T19:41:30.571Z,96262.00
2022-11-16T19:44:00.331Z,96256.80
2022-11-16T19:46:32.878Z,96263.40
2022-11-16T19:49:00.457Z,96261.40
2022-11-16T19:51:33.072Z,96258.80
2022-11-16T19:54:02.585Z,96259.80
2022-11-16T19:56:29.855Z,96258.00
2022-11-16T19:58:58.453Z,96253.00
2022-11-16T20:01:29.559Z,96257.40
2022-11-16T20:04:01.157Z,96249.00
2022-11-16T20:06:32.735Z,96246.80
2022-11-16T20:09:08.673Z,96248.80
2022-11-16T20:11:39.569Z,96247.60
2022-11-16T20:14:10.207Z,96244.80
2022-11-16T20:16:40.723Z,96247.40
2022-11-16T20:19:10.430Z,96253.40
2022-11-16T20:21:40.353Z,96247.40
2022-11-16T20:24:11.319Z,96251.40
2022-11-16T20:26:44.205Z,96250.40
2022-11-16T20:29:17.385Z,96248.00
2022-11-16T20:31:45.562Z,96249.20
2022-11-16T20:34:16.299Z,96244.80
2022-11-16T20:36:46.830Z,96238.80
2022-11-16T20:39:17.180Z,96236.80
2022-11-16T20:41:45.125Z,96234.80
2022-11-16T20:44:16.557Z,96230.80
2022-11-16T20:46:45.457Z,96226.80
2022-11-16T20:49:13.118Z,96222.20
2022-11-16T20:51:40.288Z,96216.20
2022-11-16T20:54:07.334Z,96205.40
2022-11-16T20:56:34.597Z,96194.80
2022-11-16T20:59:01.838Z,96197.60
2022-11-16T21:01:31.833Z,96198.80
2022-11-16T21:04:02.764Z,96201.80
2022-11-16T21:06:30.062Z,96197.40
2022-11-16T21:08:58.633Z,96179.00
2022-11-16T21:11:29.270Z,96193.20
2022-11-16T21:14:15.184Z,96192.40
2022-11-16T21:16:42.303Z,96197.20
2022-11-16T21:19:09.650Z,96199.00
2022-11-16T21:21:38.137Z,96196.40
2022-11-16T21:24:05.562Z,96200.60
2022-11-16T21:26:34.358Z,96203.00
2022-11-16T21:29:02.002Z,96195.60
2022-11-16T21:31:32.519Z,96205.00
2022-11-16T21:34:03.039Z,96209.60
2022-11-16T21:36:32.778Z,96209.60
2022-11-16T21:39:00.344Z,96209.60
2022-11-16T21:41:28.238Z,96208.60
2022-11-16T21:43:55.980Z,96212.20
2022-11-16T21:46:26.539Z,96208.60
2022-11-16T21:48:56.808Z,96212.40
2022-11-16T21:51:26.919Z,96208.80
2022-11-16T21:53:55.249Z,96214.20
2022-11-16T21:56:26.155Z,96215.00
2022-11-16T21:58:54.828Z,96215.00
2022-11-16T22:01:24.296Z,96214.20
2022-11-16T22:04:11.798Z,96209.60
2022-11-16T22:06:57.253Z,96207.80
2022-11-16T22:09:24.126Z,96199.20
2022-11-16T22:11:50.965Z,96203.60
2022-11-16T22:14:17.908Z,96199.40
2022-11-16T22:16:44.730Z,96203.40
2022-11-16T22:19:11.561Z,96206.00
2022-11-16T22:21:38.537Z,96201.60
2022-11-16T22:24:05.980Z,96201.20
2022-11-16T22:26:32.972Z,96213.20
2022-11-16T22:28:59.778Z,96208.20
2022-11-16T22:31:26.720Z,96209.20
2022-11-16T22:33:53.879Z,96203.20
2022-11-16T22:36:20.737Z,96207.20
2022-11-16T22:38:47.641Z,96208.80
2022-11-16T22:41:14.606Z,96213.00
2022-11-16T22:43:41.544Z,96215.40
2022-11-16T22:46:10.896Z,96212.80
2022-11-16T22:48:40.342Z,96211.80
2022-11-16T22:51:26.523Z,96205.20
2022-11-16T22:54:05.617Z,96207.00
2022-11-16T22:56:33.786Z,96207.40
2022-11-16T22:59:02.606Z,96212.60
2022-11-16T23:01:29.583Z,96209.20
2022-11-16T23:03:56.426Z,96201.40
2022-11-16T23:06:23.817Z,96197.20
2022-11-16T23:08:51.120Z,96189.60
2022-11-16T23:11:40.482Z,96190.20
2022-11-16T23:14:31.025Z,96190.40
2022-11-16T23:16:57.939Z,96192.00
2022-11-16T23:19:44.554Z,96185.80
2022-11-16T23:22:34.546Z,96194.40
2022-11-16T23:25:21.016Z,96195.80
2022-11-16T23:28:02.729Z,96189.80
2022-11-16T23:30:29.880Z,96192.40
2022-11-16T23:32:56.758Z,96191.80
2022-11-16T23:35:24.173Z,96190.60
2022-11-16T23:38:01.149Z,96190.00
2022-11-16T23:40:37.317Z,96194.40
2022-11-16T23:43:25.092Z,96195.60
2022-11-16T23:45:51.789Z,96200.00
2022-11-16T23:48:19.863Z,96208.00
2022-11-16T23:50:47.120Z,96218.60
2022-11-16T23:53:14.429Z,96217.00
2022-11-16T23:55:41.616Z,96203.40
2022-11-16T23:58:14.942Z,96190.00
